Time;durP1;ratioP1;P1;durP2;ratioP2;P2;SDS_P1;SDS_P2;PMS_P1;PMS_P2;Temp;Humidity;BMP_temperature;BMP_pressure;BME280_temperature;BME280_humidity;BME280_pressure;Samples;Min_cycle;Max_cycle;Signal;HPM_P1;HPM_P2
2022/05/06 00:01:29;;;;;;;20.70;7.15;;;16.00;90.20;;;;;;5062392;28;20040;-62
2022/05/06 00:03:55;;;;;;;17.80;7.20;;;16.10;90.20;;;;;;5044697;28;20070;-63
2022/05/06 00:06:20;;;;;;;21.45;6.82;;;16.00;90.10;;;;;;5055797;28;20054;-61
2022/05/06 00:08:46;;;;;;;17.90;6.63;;;16.00;90.10;;;;;;5045642;28;20505;-60
2022/05/06 00:11:12;;;;;;;23.80;7.10;;;16.00;90.10;;;;;;5044783;28;20033;-61
2022/05/06 00:13:37;;;;;;;21.58;7.57;;;16.00;90.10;;;;;;5060675;28;20025;-60
2022/05/06 00:16:06;;;;;;;20.55;6.93;;;16.00;90.20;;;;;;5051986;28;20295;-60
2022/05/06 00:18:31;;;;;;;22.50;6.97;;;16.00;90.20;;;;;;5046306;28;20033;-62
2022/05/06 00:20:57;;;;;;;17.27;6.93;;;16.00;90.20;;;;;;5044081;28;20032;-60
2022/05/06 00:23:23;;;;;;;25.15;7.80;;;16.00;90.20;;;;;;5059258;28;20131;-61
2022/05/06 00:25:49;;;;;;;22.02;6.70;;;16.00;90.20;;;;;;5045136;28;20104;-62
2022/05/06 00:28:15;;;;;;;17.10;6.00;;;15.90;90.10;;;;;;5064143;28;20268;-61
2022/05/06 00:30:41;;;;;;;18.70;6.40;;;15.90;90.20;;;;;;5039609;28;20059;-59
2022/05/06 00:33:09;;;;;;;21.33;6.45;;;15.90;90.20;;;;;;5061969;28;20020;-61
2022/05/06 00:35:36;;;;;;;23.92;7.30;;;15.90;90.20;;;;;;5045356;28;20079;-60
2022/05/06 00:38:02;;;;;;;17.95;6.55;;;15.90;90.20;;;;;;5063671;28;20051;-60
2022/05/06 00:40:28;;;;;;;23.45;6.68;;;15.90;90.20;;;;;;5064139;28;20040;-60
2022/05/06 00:42:55;;;;;;;15.70;6.53;;;15.90;90.20;;;;;;5065769;28;20028;-60
2022/05/06 00:45:21;;;;;;;23.30;6.78;;;15.90;90.20;;;;;;5061869;28;20024;-62
2022/05/06 00:47:46;;;;;;;16.10;5.68;;;15.90;90.20;;;;;;5062820;28;20060;-59
2022/05/06 00:50:12;;;;;;;16.75;5.57;;;15.90;90.30;;;;;;5063786;28;20107;-59
2022/05/06 00:52:38;;;;;;;11.48;5.43;;;15.90;90.30;;;;;;5047060;28;20024;-60
2022/05/06 00:55:04;;;;;;;14.75;5.50;;;15.80;90.30;;;;;;5045949;28;20801;-60
2022/05/06 00:57:30;;;;;;;12.88;5.75;;;15.80;90.30;;;;;;5043364;28;20032;-62
2022/05/06 01:02:40;;;;;;;13.18;5.28;;;15.80;90.30;;;;;;5060537;28;20442;-60
2022/05/06 01:05:07;;;;;;;10.23;5.30;;;15.80;90.30;;;;;;5061594;28;20035;-61
2022/05/06 01:07:33;;;;;;;14.02;6.28;;;15.80;90.30;;;;;;5045007;28;20502;-60
2022/05/06 01:09:58;;;;;;;21.13;6.22;;;15.80;90.30;;;;;;5028217;28;20049;-60
2022/05/06 01:12:24;;;;;;;23.38;6.22;;;15.80;90.20;;;;;;5044784;28;20090;-60
2022/05/06 01:14:49;;;;;;;27.58;7.75;;;15.70;90.20;;;;;;5062749;28;20148;-63
2022/05/06 01:17:16;;;;;;;19.42;8.05;;;15.80;90.20;;;;;;5058439;28;20412;-63
2022/05/06 01:19:41;;;;;;;20.20;7.35;;;15.80;90.20;;;;;;5056218;28;20036;-60
2022/05/06 01:22:07;;;;;;;20.73;7.30;;;15.80;90.10;;;;;;5060427;28;20029;-61
2022/05/06 01:24:32;;;;;;;21.42;7.05;;;15.80;90.20;;;;;;5060805;28;20055;-59
2022/05/06 01:27:08;;;;;;;22.30;7.18;;;15.80;90.20;;;;;;5057831;28;20358;-58
2022/05/06 01:29:35;;;;;;;21.52;7.30;;;15.80;90.20;;;;;;5037085;28;20229;-61
2022/05/06 01:32:01;;;;;;;16.13;6.68;;;15.80;90.20;;;;;;5007163;28;20017;-62
2022/05/06 01:34:28;;;;;;;19.15;6.93;;;15.80;90.50;;;;;;5056868;28;20016;-60
2022/05/06 01:36:55;;;;;;;26.05;6.80;;;15.80;90.20;;;;;;5064099;28;20077;-63
2022/05/06 01:39:23;;;;;;;19.05;7.00;;;15.80;90.30;;;;;;5044989;28;20109;-60
2022/05/06 01:41:51;;;;;;;18.35;7.03;;;15.80;90.30;;;;;;5046286;28;20399;-62
2022/05/06 01:44:17;;;;;;;19.42;6.82;;;15.80;90.30;;;;;;5047582;28;20028;-62
2022/05/06 01:46:42;;;;;;;17.48;6.43;;;15.80;90.40;;;;;;5046364;28;20039;-63
2022/05/06 01:49:08;;;;;;;17.48;6.70;;;15.80;90.40;;;;;;5046336;28;20484;-61
2022/05/06 01:51:34;;;;;;;17.92;6.32;;;15.80;90.40;;;;;;5043714;28;20044;-61
2022/05/06 01:54:00;;;;;;;15.77;6.55;;;15.70;90.30;;;;;;5061070;28;20603;-62
2022/05/06 01:56:25;;;;;;;19.00;6.75;;;15.70;90.40;;;;;;5062490;28;20120;-60
2022/05/06 01:58:51;;;;;;;18.60;6.68;;;15.70;90.40;;;;;;5045454;28;20038;-62
2022/05/06 02:01:17;;;;;;;16.75;6.25;;;15.70;90.40;;;;;;5058548;28;20043;-61
2022/05/06 02:06:27;;;;;;;10.65;6.03;;;15.70;90.40;;;;;;5062406;28;20036;-60
2022/05/06 02:08:52;;;;;;;17.17;6.00;;;15.70;90.40;;;;;;5045093;28;20036;-61
2022/05/06 02:11:18;;;;;;;15.48;5.53;;;15.70;90.50;;;;;;5046179;28;20495;-61
2022/05/06 02:13:45;;;;;;;17.02;5.55;;;15.70;90.50;;;;;;5045179;28;20318;-60
2022/05/06 02:16:10;;;;;;;12.63;5.80;;;15.70;90.50;;;;;;5047497;28;20047;-62
2022/05/06 02:18:36;;;;;;;9.57;5.63;;;15.70;90.50;;;;;;5041100;28;20072;-61
2022/05/06 02:21:01;;;;;;;14.75;5.75;;;15.70;90.50;;;;;;5044062;28;20051;-61
2022/05/06 02:23:27;;;;;;;14.45;5.75;;;15.60;90.50;;;;;;5062117;28;20090;-63
2022/05/06 02:25:53;;;;;;;13.90;6.20;;;15.70;90.50;;;;;;5044435;28;20476;-62
2022/05/06 02:28:18;;;;;;;12.23;6.80;;;15.70;90.50;;;;;;5043940;28;20024;-62
2022/05/06 02:33:30;;;;;;;9.85;6.25;;;15.70;90.50;;;;;;5051362;28;20078;-59
2022/05/06 02:35:56;;;;;;;13.02;6.00;;;15.70;90.50;;;;;;5043449;28;20438;-62
2022/05/06 02:38:22;;;;;;;14.52;6.15;;;15.70;90.50;;;;;;5054188;28;20074;-63
2022/05/06 02:40:48;;;;;;;14.05;5.85;;;15.70;90.60;;;;;;5044474;28;20036;-62
2022/05/06 02:43:13;;;;;;;13.05;6.45;;;15.70;90.50;;;;;;5059805;28;20094;-61
2022/05/06 02:45:39;;;;;;;11.48;5.75;;;15.70;90.50;;;;;;5060876;28;20020;-60
2022/05/06 02:48:05;;;;;;;12.88;5.72;;;15.60;90.60;;;;;;5056518;28;20111;-59
2022/05/06 02:50:31;;;;;;;13.00;5.38;;;15.70;90.60;;;;;;5057605;28;20056;-61
2022/05/06 02:52:56;;;;;;;11.77;5.60;;;15.70;90.70;;;;;;5041808;28;20029;-62
2022/05/06 02:55:23;;;;;;;15.55;6.05;;;15.60;90.60;;;;;;5055050;28;20912;-61
2022/05/06 02:57:49;;;;;;;14.13;5.68;;;15.70;90.70;;;;;;5042262;28;20583;-61
2022/05/06 03:00:15;;;;;;;12.70;6.32;;;15.60;90.60;;;;;;5061418;28;20048;-59
2022/05/06 03:02:40;;;;;;;12.85;5.78;;;15.60;90.50;;;;;;5061187;28;20511;-60
2022/05/06 03:05:07;;;;;;;8.88;5.72;;;15.70;90.60;;;;;;5043497;28;20090;-60
2022/05/06 03:07:32;;;;;;;12.15;6.95;;;15.60;90.70;;;;;;5053590;28;20025;-61
2022/05/06 03:09:58;;;;;;;10.85;5.90;;;15.60;90.70;;;;;;5051081;28;20409;-61
2022/05/06 03:12:26;;;;;;;10.02;6.10;;;15.60;90.70;;;;;;5026885;28;20094;-62
2022/05/06 03:14:52;;;;;;;11.55;6.22;;;15.60;90.70;;;;;;5043591;28;20016;-60
2022/05/06 03:17:17;;;;;;;9.95;6.13;;;15.60;90.90;;;;;;5056570;28;20404;-60
2022/05/06 03:19:43;;;;;;;10.10;6.60;;;15.60;90.90;;;;;;5025980;28;20112;-60
2022/05/06 03:22:08;;;;;;;10.50;6.22;;;15.50;90.90;;;;;;5043352;28;20021;-62
2022/05/06 03:24:34;;;;;;;8.85;5.75;;;15.50;90.90;;;;;;5053434;28;20106;-63
2022/05/06 03:27:00;;;;;;;14.73;6.38;;;15.50;90.80;;;;;;5062235;28;20024;-60
2022/05/06 03:29:25;;;;;;;10.02;6.18;;;15.50;90.80;;;;;;5023869;28;20482;-62
2022/05/06 03:31:54;;;;;;;10.73;6.60;;;15.50;90.90;;;;;;5012055;28;20461;-61
2022/05/06 03:34:20;;;;;;;9.27;6.45;;;15.50;90.90;;;;;;5061737;28;20456;-60
2022/05/06 03:36:46;;;;;;;10.93;6.65;;;15.50;90.90;;;;;;5042180;28;20131;-60
2022/05/06 03:39:11;;;;;;;8.80;6.63;;;15.50;90.90;;;;;;5058646;28;20041;-62
2022/05/06 03:41:37;;;;;;;9.43;6.53;;;15.50;90.90;;;;;;5058662;28;20020;-62
2022/05/06 03:44:03;;;;;;;9.45;6.28;;;15.50;91.00;;;;;;5058615;28;20040;-60
2022/05/06 03:46:28;;;;;;;10.48;6.65;;;15.50;91.00;;;;;;5043704;28;20066;-62
2022/05/06 03:48:54;;;;;;;9.13;6.30;;;15.40;91.00;;;;;;5047131;28;20736;-61
2022/05/06 03:51:22;;;;;;;10.45;6.22;;;15.40;91.00;;;;;;5054173;28;20021;-61
2022/05/06 03:53:55;;;;;;;9.38;7.13;;;15.40;91.00;;;;;;5062410;28;20044;-60
2022/05/06 03:56:22;;;;;;;12.85;7.15;;;15.40;91.00;;;;;;5043368;28;20108;-61
2022/05/06 03:58:48;;;;;;;9.65;6.53;;;15.40;90.90;;;;;;5027810;28;20422;-60
2022/05/06 04:01:14;;;;;;;11.20;6.10;;;15.50;91.00;;;;;;5042353;28;20106;-60
2022/05/06 04:03:39;;;;;;;9.90;6.40;;;15.40;90.90;;;;;;5037359;28;20411;-60
2022/05/06 04:06:05;;;;;;;8.95;6.45;;;15.40;90.90;;;;;;5043131;28;20029;-59
2022/05/06 04:08:32;;;;;;;10.80;7.40;;;15.40;91.00;;;;;;5053480;28;20538;-60
2022/05/06 04:10:57;;;;;;;11.10;6.78;;;15.30;91.00;;;;;;5042528;28;20094;-61
2022/05/06 04:13:23;;;;;;;8.93;6.55;;;15.30;91.00;;;;;;5042005;28;20036;-61
2022/05/06 04:15:50;;;;;;;8.85;6.50;;;15.40;91.00;;;;;;5040771;28;20468;-62
2022/05/06 04:18:15;;;;;;;8.80;6.43;;;15.30;90.90;;;;;;5042789;28;20035;-62
2022/05/06 04:23:30;;;;;;;11.20;6.40;;;15.30;91.00;;;;;;5064360;28;20797;-60
2022/05/06 04:25:56;;;;;;;9.65;6.95;;;15.30;91.00;;;;;;5064071;28;20434;-62
2022/05/06 04:28:23;;;;;;;8.27;6.45;;;15.30;91.00;;;;;;5046602;28;20040;-63
2022/05/06 04:30:48;;;;;;;9.98;6.38;;;15.30;91.00;;;;;;5058070;28;20036;-62
2022/05/06 04:33:14;;;;;;;8.25;6.63;;;15.30;91.00;;;;;;5064826;28;20032;-63
2022/05/06 04:35:39;;;;;;;9.52;6.75;;;15.30;91.00;;;;;;5047054;28;20856;-63
2022/05/06 04:38:05;;;;;;;8.15;6.65;;;15.30;91.00;;;;;;5031114;28;20052;-60
2022/05/06 04:40:30;;;;;;;11.32;6.50;;;15.30;91.00;;;;;;5064651;28;20111;-60
2022/05/06 04:42:56;;;;;;;9.25;6.55;;;15.40;91.10;;;;;;5064010;28;20143;-61
2022/05/06 04:45:21;;;;;;;11.45;6.43;;;15.30;91.10;;;;;;5063034;28;20125;-61
2022/05/06 04:47:47;;;;;;;12.20;6.88;;;15.20;91.10;;;;;;5065503;28;20433;-60
2022/05/06 04:50:12;;;;;;;55.20;13.05;;;15.30;91.10;;;;;;5064625;28;20053;-60
2022/05/06 04:52:38;;;;;;;70.57;15.32;;;15.20;91.10;;;;;;5046621;28;20136;-63
2022/05/06 04:55:04;;;;;;;47.38;11.77;;;15.20;91.10;;;;;;5057562;28;20045;-62
2022/05/06 04:57:29;;;;;;;38.92;9.95;;;15.20;91.10;;;;;;5061554;28;20028;-63
2022/05/06 04:59:55;;;;;;;37.70;10.43;;;15.30;91.40;;;;;;5047306;28;20537;-60
2022/05/06 05:02:21;;;;;;;30.27;10.00;;;15.20;91.10;;;;;;5061871;28;20052;-64
2022/05/06 05:04:46;;;;;;;33.13;9.38;;;15.20;91.10;;;;;;5065395;28;20171;-59
2022/05/06 05:07:12;;;;;;;29.30;9.30;;;15.20;91.10;;;;;;5040332;28;20392;-60
2022/05/06 05:09:37;;;;;;;39.50;9.10;;;15.20;91.10;;;;;;5061862;28;20032;-63
2022/05/06 05:12:04;;;;;;;36.60;9.55;;;15.20;91.00;;;;;;5060313;28;20480;-63
2022/05/06 05:14:30;;;;;;;34.70;9.38;;;15.20;91.00;;;;;;5044671;28;20120;-61
2022/05/06 05:16:55;;;;;;;28.17;9.18;;;15.20;91.10;;;;;;5045424;28;20107;-61
2022/05/06 05:19:21;;;;;;;33.38;8.88;;;15.20;91.10;;;;;;5059320;28;20029;-62
2022/05/06 05:21:47;;;;;;;21.20;8.18;;;15.20;91.20;;;;;;5059598;28;20068;-61
2022/05/06 05:24:13;;;;;;;35.17;9.13;;;15.20;91.10;;;;;;5062660;28;20038;-63
2022/05/06 05:26:38;;;;;;;27.35;9.20;;;15.20;91.10;;;;;;5062670;28;20020;-63
2022/05/06 05:29:04;;;;;;;34.25;9.07;;;15.30;91.10;;;;;;5063480;28;20052;-62
2022/05/06 05:31:30;;;;;;;25.98;9.05;;;15.20;91.10;;;;;;5062485;28;20218;-62
2022/05/06 05:33:55;;;;;;;21.58;8.85;;;15.20;91.10;;;;;;5027105;28;20033;-60
2022/05/06 05:36:21;;;;;;;17.05;8.65;;;15.20;91.10;;;;;;5051048;28;20053;-61
2022/05/06 05:38:46;;;;;;;22.77;9.02;;;15.20;91.10;;;;;;5039928;28;20029;-62
2022/05/06 05:41:12;;;;;;;24.85;8.38;;;15.20;91.10;;;;;;5063104;28;20072;-61
2022/05/06 05:49:23;;;;;;;20.98;8.15;;;15.20;91.20;;;;;;4997218;28;20575;-62
2022/05/06 05:51:48;;;;;;;19.73;8.38;;;15.20;91.30;;;;;;5021656;28;20049;-61
2022/05/06 05:54:15;;;;;;;25.10;8.63;;;15.20;91.20;;;;;;5050645;28;20044;-60
2022/05/06 05:56:41;;;;;;;32.17;9.30;;;15.20;91.20;;;;;;5061538;28;20082;-61
2022/05/06 05:59:07;;;;;;;20.15;9.32;;;15.20;91.20;;;;;;5051097;28;20080;-61
2022/05/06 06:01:32;;;;;;;19.55;9.05;;;15.20;91.30;;;;;;5039700;28;20045;-62
2022/05/06 06:03:58;;;;;;;27.45;9.73;;;15.20;91.30;;;;;;5052167;28;20403;-61
2022/05/06 06:06:23;;;;;;;19.58;8.13;;;15.20;91.40;;;;;;5058528;28;20449;-61
2022/05/06 06:08:49;;;;;;;18.98;9.50;;;15.20;91.60;;;;;;5048027;28;20045;-60
2022/05/06 06:11:14;;;;;;;23.08;9.38;;;15.10;91.70;;;;;;5058555;28;20036;-61
2022/05/06 06:13:40;;;;;;;20.45;9.30;;;15.10;91.80;;;;;;5043747;28;20043;-60
2022/05/06 06:16:05;;;;;;;16.63;9.10;;;15.10;91.90;;;;;;5039044;28;20289;-62
2022/05/06 06:18:31;;;;;;;25.30;9.32;;;15.00;92.00;;;;;;5061447;28;20029;-60
2022/05/06 06:20:56;;;;;;;18.75;9.25;;;15.00;92.10;;;;;;5061986;28;20032;-60
2022/05/06 06:23:23;;;;;;;16.00;9.05;;;15.00;92.00;;;;;;5059998;28;20068;-61
2022/05/06 06:25:48;;;;;;;20.42;10.02;;;15.00;92.10;;;;;;5024511;28;20622;-61
2022/05/06 06:28:14;;;;;;;12.82;8.55;;;15.00;92.30;;;;;;5047542;28;20056;-61
2022/05/06 06:30:40;;;;;;;25.70;9.65;;;15.00;92.30;;;;;;5051267;28;20123;-61
2022/05/06 06:33:07;;;;;;;16.05;8.45;;;15.00;92.30;;;;;;5042861;28;20028;-61
2022/05/06 06:35:32;;;;;;;15.27;9.57;;;15.00;92.40;;;;;;5054155;28;20230;-62
2022/05/06 06:37:58;;;;;;;22.02;9.13;;;14.90;92.40;;;;;;5058073;28;20013;-63
2022/05/06 06:40:24;;;;;;;16.55;9.60;;;15.00;92.60;;;;;;5040860;28;20076;-60
2022/05/06 06:42:49;;;;;;;14.52;9.40;;;14.90;92.60;;;;;;5041199;28;20282;-59
2022/05/06 06:45:15;;;;;;;15.98;9.25;;;14.90;92.70;;;;;;5056760;28;20036;-61
2022/05/06 06:47:41;;;;;;;16.25;9.55;;;14.90;92.70;;;;;;5061301;28;20072;-60
2022/05/06 06:50:07;;;;;;;13.63;9.43;;;14.90;92.50;;;;;;5011369;28;20035;-61
2022/05/06 06:52:32;;;;;;;15.50;9.75;;;14.90;92.70;;;;;;5052030;28;20139;-61
2022/05/06 06:54:59;;;;;;;21.23;9.68;;;14.90;92.80;;;;;;5056043;28;20060;-61
2022/05/06 06:57:26;;;;;;;16.48;9.48;;;14.90;92.90;;;;;;5052340;28;20174;-62
2022/05/06 06:59:52;;;;;;;18.17;9.57;;;14.90;93.00;;;;;;5046894;28;20029;-61
2022/05/06 07:02:17;;;;;;;15.80;10.13;;;14.90;93.00;;;;;;5040548;28;20123;-61
2022/05/06 07:04:43;;;;;;;14.57;9.68;;;14.90;93.20;;;;;;5050337;28;20033;-60
2022/05/06 07:12:37;;;;;;;31.25;11.13;;;14.90;93.10;;;;;;5043958;28;20679;-59
2022/05/06 07:15:03;;;;;;;34.55;10.80;;;15.00;93.10;;;;;;5051853;28;20119;-61
2022/05/06 07:17:29;;;;;;;32.10;11.40;;;15.00;93.20;;;;;;5031880;28;20492;-61
2022/05/06 07:19:54;;;;;;;34.72;11.93;;;14.90;93.30;;;;;;5035769;28;20037;-60
2022/05/06 07:22:20;;;;;;;30.58;10.45;;;15.00;93.30;;;;;;5037474;28;20032;-61
2022/05/06 07:24:45;;;;;;;25.50;10.23;;;15.00;93.10;;;;;;5034993;28;20060;-61
2022/05/06 07:27:11;;;;;;;26.25;10.27;;;15.00;93.00;;;;;;5023238;28;20156;-60
2022/05/06 07:29:36;;;;;;;30.30;11.35;;;15.10;92.90;;;;;;5056208;28;20021;-62
2022/05/06 07:32:02;;;;;;;22.95;10.55;;;15.10;93.10;;;;;;5037747;28;20060;-63
2022/05/06 07:34:28;;;;;;;27.58;10.60;;;15.10;93.00;;;;;;5044762;28;20083;-62
2022/05/06 07:36:54;;;;;;;31.20;11.95;;;15.10;92.90;;;;;;5054304;28;20036;-62
2022/05/06 07:39:19;;;;;;;28.30;11.43;;;15.20;93.00;;;;;;5018651;28;20763;-62
2022/05/06 07:41:46;;;;;;;39.70;12.57;;;15.20;93.10;;;;;;5046499;28;20023;-63
2022/05/06 07:44:11;;;;;;;34.58;12.40;;;15.20;93.00;;;;;;5049009;28;20087;-63
2022/05/06 07:46:37;;;;;;;39.47;11.95;;;15.20;93.10;;;;;;5034350;28;20056;-62
2022/05/06 07:49:04;;;;;;;40.92;13.30;;;15.20;92.90;;;;;;5020838;28;20491;-62
2022/05/06 07:51:29;;;;;;;38.50;12.88;;;15.20;92.70;;;;;;5050831;28;20480;-63
2022/05/06 07:53:56;;;;;;;57.38;13.25;;;15.20;93.00;;;;;;5019219;28;20151;-65
2022/05/06 07:56:23;;;;;;;52.00;13.02;;;15.20;92.90;;;;;;5023956;28;20033;-63
2022/05/06 07:58:49;;;;;;;75.13;15.63;;;15.20;93.10;;;;;;5023956;28;20041;-63
2022/05/06 08:01:14;;;;;;;53.28;14.07;;;15.20;93.10;;;;;;5024648;28;20044;-63
2022/05/06 08:06:24;;;;;;;68.07;14.95;;;15.20;93.20;;;;;;5055671;28;20122;-62
2022/05/06 08:08:50;;;;;;;72.15;15.75;;;15.20;93.20;;;;;;5032145;28;20408;-60
2022/05/06 08:11:16;;;;;;;83.60;16.73;;;15.20;93.20;;;;;;5035256;28;20432;-59
2022/05/06 08:13:42;;;;;;;71.32;16.77;;;15.20;93.30;;;;;;5017452;28;20048;-61
2022/05/06 08:16:07;;;;;;;53.53;14.18;;;15.20;93.40;;;;;;5018770;28;20507;-62
2022/05/06 08:18:33;;;;;;;75.47;16.65;;;15.20;93.40;;;;;;5048194;28;20056;-60
2022/05/06 08:20:58;;;;;;;82.40;16.92;;;15.20;93.40;;;;;;5046834;28;20605;-61
2022/05/06 08:23:24;;;;;;;70.82;15.48;;;15.20;93.50;;;;;;5047782;28;20455;-59
2022/05/06 08:25:50;;;;;;;92.05;16.15;;;15.20;93.50;;;;;;5050358;28;20051;-61
2022/05/06 08:28:17;;;;;;;72.25;16.30;;;15.20;93.50;;;;;;5052970;28;20422;-61
2022/05/06 08:30:44;;;;;;;71.57;17.20;;;15.20;93.60;;;;;;5055591;28;20059;-62
2022/05/06 08:33:10;;;;;;;70.60;16.95;;;15.20;93.50;;;;;;5035959;28;20280;-61
2022/05/06 08:35:35;;;;;;;97.15;16.65;;;15.20;93.70;;;;;;5049972;28;20597;-61
2022/05/06 08:38:01;;;;;;;73.90;16.40;;;15.20;93.80;;;;;;5031387;28;20033;-61
2022/05/06 08:40:29;;;;;;;64.85;15.00;;;15.20;93.70;;;;;;5039017;28;20153;-64
2022/05/06 08:42:54;;;;;;;75.85;16.30;;;15.20;93.80;;;;;;5052769;28;20496;-59
2022/05/06 08:50:50;;;;;;;90.65;17.67;;;15.30;94.10;;;;;;5025298;28;20138;-63
2022/05/06 08:53:16;;;;;;;92.95;18.85;;;15.20;94.10;;;;;;5024203;28;20517;-61
2022/05/06 08:55:41;;;;;;;119.00;20.23;;;15.20;94.40;;;;;;5035254;28;20128;-61
2022/05/06 08:58:07;;;;;;;99.70;19.55;;;15.20;94.50;;;;;;5048016;28;20028;-61
2022/05/06 09:00:32;;;;;;;97.35;18.98;;;15.20;94.60;;;;;;5055223;28;20041;-63
2022/05/06 09:02:58;;;;;;;107.72;20.60;;;15.20;94.50;;;;;;5038511;28;20044;-63
2022/05/06 09:05:23;;;;;;;139.68;22.05;;;15.30;94.50;;;;;;5048379;28;20377;-62
2022/05/06 09:08:00;;;;;;;120.57;20.40;;;15.30;94.60;;;;;;5051199;28;20118;-64
2022/05/06 09:10:26;;;;;;;81.40;19.20;;;15.30;94.50;;;;;;5037421;28;20044;-61
2022/05/06 09:12:53;;;;;;;98.75;18.77;;;15.30;94.40;;;;;;5049671;28;20030;-61
2022/05/06 09:18:03;;;;;;;79.80;19.80;;;15.30;94.80;;;;;;5050557;28;20617;-61
2022/05/06 09:20:29;;;;;;;90.32;17.73;;;15.20;94.30;;;;;;5037228;28;20032;-62
2022/05/06 09:22:55;;;;;;;78.07;18.42;;;15.30;94.30;;;;;;5061603;28;20029;-62
2022/05/06 09:25:40;;;;;;;66.07;18.63;;;15.30;94.40;;;;;;5055728;28;20477;-62
2022/05/06 09:28:06;;;;;;;81.22;19.15;;;15.20;94.20;;;;;;5056149;28;20056;-62
2022/05/06 09:30:33;;;;;;;98.45;20.23;;;15.20;94.30;;;;;;5055492;28;20934;-62
2022/05/06 09:32:59;;;;;;;70.75;18.88;;;15.30;94.40;;;;;;5025070;28;20360;-60
2022/05/06 09:35:28;;;;;;;85.43;19.33;;;15.30;94.40;;;;;;5060171;28;20028;-60
2022/05/06 09:37:54;;;;;;;81.03;19.67;;;15.20;94.30;;;;;;5019444;28;20115;-61
2022/05/06 09:40:29;;;;;;;78.93;20.42;;;15.20;94.30;;;;;;5008344;28;20414;-60
2022/05/06 09:42:55;;;;;;;59.75;18.38;;;15.30;94.50;;;;;;5024259;28;20104;-62
2022/05/06 09:45:32;;;;;;;99.65;20.45;;;15.30;94.40;;;;;;5052711;28;20124;-60
2022/05/06 09:47:59;;;;;;;91.95;21.73;;;15.30;94.50;;;;;;5044438;28;20130;-60
2022/05/06 09:50:32;;;;;;;69.78;19.10;;;15.30;94.60;;;;;;5027661;28;20111;-62
2022/05/06 09:53:01;;;;;;;75.18;20.10;;;15.30;94.70;;;;;;5037779;28;20031;-63
2022/05/06 09:55:28;;;;;;;67.05;19.13;;;15.30;94.50;;;;;;5032917;28;20173;-60
2022/05/06 09:57:55;;;;;;;83.82;19.58;;;15.30;94.50;;;;;;5023890;28;20162;-63
2022/05/06 10:00:21;;;;;;;70.32;19.50;;;15.30;94.50;;;;;;5041677;28;20128;-60
2022/05/06 10:02:46;;;;;;;87.93;20.08;;;15.30;94.60;;;;;;5061700;28;20178;-61
2022/05/06 10:05:12;;;;;;;73.20;19.80;;;15.30;94.60;;;;;;5023828;28;20037;-60
2022/05/06 10:07:40;;;;;;;81.97;20.75;;;15.40;94.60;;;;;;5056230;28;20038;-61
2022/05/06 10:10:08;;;;;;;75.68;19.98;;;15.40;94.40;;;;;;5040763;28;20576;-60
2022/05/06 10:12:45;;;;;;;86.22;20.05;;;15.40;94.50;;;;;;5041461;28;20024;-62
2022/05/06 10:15:13;;;;;;;89.40;22.27;;;15.50;94.70;;;;;;5031489;28;20162;-63
2022/05/06 10:17:55;;;;;;;81.32;23.23;;;15.40;95.00;;;;;;5038151;28;20153;-59
2022/05/06 10:20:41;;;;;;;106.32;23.95;;;15.40;95.00;;;;;;5055618;28;20208;-62
2022/05/06 10:23:07;;;;;;;94.60;20.65;;;15.50;94.90;;;;;;5055646;28;20033;-63
2022/05/06 10:25:42;;;;;;;92.63;22.38;;;15.50;95.00;;;;;;5039845;28;20227;-62
2022/05/06 10:34:10;;;;;;;114.22;22.65;;;15.60;95.10;;;;;;5049538;28;20071;-60
2022/05/06 10:36:42;;;;;;;87.38;20.02;;;15.50;95.20;;;;;;5052885;28;20471;-59
2022/05/06 10:39:19;;;;;;;89.57;21.50;;;15.50;95.30;;;;;;5054213;28;20028;-63
2022/05/06 10:42:01;;;;;;;98.70;21.67;;;15.60;95.40;;;;;;5040792;28;20029;-60
2022/05/06 10:44:42;;;;;;;90.93;21.88;;;15.60;95.10;;;;;;5056370;28;20089;-61
2022/05/06 10:47:19;;;;;;;84.13;20.75;;;15.60;95.30;;;;;;5023793;28;20024;-62
2022/05/06 10:49:52;;;;;;;95.03;23.20;;;15.60;95.10;;;;;;5041016;28;20131;-62
2022/05/06 10:52:24;;;;;;;102.30;22.63;;;15.70;95.10;;;;;;5027217;28;20445;-59
2022/05/06 10:55:00;;;;;;;85.75;21.77;;;15.70;95.00;;;;;;5055331;28;20151;-60
2022/05/06 10:57:27;;;;;;;100.57;24.85;;;15.70;95.10;;;;;;5018694;28;20121;-61
2022/05/06 10:59:52;;;;;;;90.88;23.90;;;15.80;95.30;;;;;;5052810;28;20452;-59
2022/05/06 11:02:21;;;;;;;83.30;24.90;;;15.80;95.50;;;;;;5062518;28;20040;-61
2022/05/06 11:04:51;;;;;;;89.65;23.67;;;15.80;95.40;;;;;;5040244;28;20031;-60
2022/05/06 11:07:19;;;;;;;89.97;23.13;;;15.80;95.20;;;;;;5054409;28;20111;-62
2022/05/06 11:09:45;;;;;;;95.22;22.95;;;15.80;95.00;;;;;;5050133;28;20036;-61
2022/05/06 11:12:10;;;;;;;109.55;24.83;;;15.80;94.90;;;;;;5047102;28;20044;-62
2022/05/06 11:14:36;;;;;;;103.05;23.75;;;15.80;95.00;;;;;;5035880;28;20097;-61
2022/05/06 11:17:18;;;;;;;81.53;23.20;;;15.90;95.00;;;;;;5037782;28;20101;-62
2022/05/06 11:19:43;;;;;;;84.65;22.38;;;15.90;94.90;;;;;;5044493;28;20123;-65
2022/05/06 11:22:09;;;;;;;108.35;26.10;;;15.90;94.80;;;;;;5035924;28;20036;-60
2022/05/06 11:24:35;;;;;;;85.70;24.63;;;15.90;94.70;;;;;;5033708;28;20052;-60
2022/05/06 11:27:14;;;;;;;89.45;24.98;;;15.90;94.90;;;;;;5032951;28;20508;-60
2022/05/06 11:29:55;;;;;;;104.38;24.10;;;16.00;94.90;;;;;;5046310;28;20488;-61
2022/05/06 11:32:21;;;;;;;96.63;23.23;;;16.00;94.90;;;;;;5037627;28;20452;-60
2022/05/06 11:34:50;;;;;;;92.95;23.95;;;16.00;94.80;;;;;;5040500;28;20032;-60
2022/05/06 11:37:25;;;;;;;100.47;23.85;;;16.00;94.70;;;;;;5054592;28;20496;-61
2022/05/06 11:39:51;;;;;;;88.18;22.92;;;16.00;94.70;;;;;;5052293;28;20049;-60
2022/05/06 11:42:23;;;;;;;74.95;23.50;;;16.00;94.70;;;;;;5040248;28;20146;-60
2022/05/06 11:47:42;;;;;;;88.55;24.77;;;16.10;94.50;;;;;;5029103;28;20798;-62
2022/05/06 11:50:08;;;;;;;111.80;27.35;;;16.10;94.70;;;;;;5035576;28;20033;-61
2022/05/06 11:52:33;;;;;;;92.28;24.00;;;16.10;94.70;;;;;;5021276;28;20556;-60
2022/05/06 11:54:59;;;;;;;89.70;24.92;;;16.10;94.80;;;;;;5025214;28;20028;-63
2022/05/06 11:57:25;;;;;;;83.20;26.25;;;16.10;94.70;;;;;;5043960;28;20480;-63
2022/05/06 11:59:50;;;;;;;90.05;26.45;;;16.20;94.70;;;;;;5038335;28;20140;-60
2022/05/06 12:02:16;;;;;;;98.45;24.90;;;16.30;94.80;;;;;;5021096;28;20060;-69
2022/05/06 12:04:42;;;;;;;72.28;24.40;;;16.20;94.70;;;;;;5021029;28;20040;-60
2022/05/06 12:07:07;;;;;;;86.45;24.25;;;16.20;94.70;;;;;;5061233;28;20068;-62
2022/05/06 12:09:41;;;;;;;128.48;26.77;;;16.20;94.60;;;;;;5021479;28;20059;-60
2022/05/06 12:12:08;;;;;;;88.35;27.13;;;16.30;94.60;;;;;;5032396;28;20048;-60
2022/05/06 12:14:34;;;;;;;84.40;24.10;;;16.30;94.50;;;;;;5034846;28;20514;-62
2022/05/06 12:17:10;;;;;;;77.53;23.27;;;16.40;94.40;;;;;;4999643;28;20609;-61
2022/05/06 12:19:36;;;;;;;86.10;24.23;;;16.40;94.30;;;;;;5032282;28;20033;-60
2022/05/06 12:22:06;;;;;;;86.65;25.02;;;16.40;94.20;;;;;;5050383;28;20025;-60
2022/05/06 12:24:42;;;;;;;93.88;25.00;;;16.40;94.20;;;;;;5035308;28;20058;-61
2022/05/06 12:27:08;;;;;;;83.57;25.02;;;16.50;94.20;;;;;;5038312;28;20124;-61
2022/05/06 12:29:40;;;;;;;77.40;25.15;;;16.40;94.20;;;;;;5025131;28;20163;-62
2022/05/06 12:32:06;;;;;;;91.38;25.40;;;16.50;94.10;;;;;;5024908;28;20032;-61
2022/05/06 12:34:32;;;;;;;167.20;29.27;;;16.60;94.10;;;;;;5008639;28;20155;-62
2022/05/06 12:37:14;;;;;;;137.15;27.73;;;16.60;94.10;;;;;;5053123;28;20362;-62
2022/05/06 12:39:48;;;;;;;115.63;28.02;;;16.60;94.10;;;;;;5055113;28;20048;-60
2022/05/06 12:42:20;;;;;;;143.95;29.05;;;16.60;94.00;;;;;;5046057;28;20033;-59
2022/05/06 12:44:46;;;;;;;166.40;30.50;;;16.70;94.10;;;;;;5058912;28;20052;-61
2022/05/06 12:47:13;;;;;;;166.02;30.77;;;16.70;94.00;;;;;;5035403;28;20601;-60
2022/05/06 12:49:39;;;;;;;205.73;32.90;;;16.80;93.90;;;;;;5039356;28;20029;-61
2022/05/06 12:52:06;;;;;;;153.75;30.90;;;16.80;93.80;;;;;;5039931;28;20718;-62
2022/05/06 12:54:32;;;;;;;162.23;31.10;;;16.80;94.00;;;;;;5053748;28;20028;-61
2022/05/06 12:56:58;;;;;;;147.35;31.67;;;16.80;93.90;;;;;;5045314;28;20064;-66
2022/05/06 12:59:23;;;;;;;149.65;29.50;;;16.80;94.00;;;;;;5042099;28;20512;-61
2022/05/06 13:01:50;;;;;;;129.68;28.38;;;16.90;93.90;;;;;;5021869;28;20060;-60
2022/05/06 13:04:16;;;;;;;150.23;29.65;;;16.90;93.80;;;;;;5017940;28;20178;-61
2022/05/06 13:06:41;;;;;;;145.10;30.40;;;16.90;93.80;;;;;;5035101;28;20373;-61
2022/05/06 13:09:08;;;;;;;130.77;29.70;;;16.90;93.90;;;;;;5011162;28;20152;-62
2022/05/06 13:11:33;;;;;;;144.68;29.60;;;16.90;93.80;;;;;;5054207;28;20031;-60